createdAt,value
2019-05-21T00:04:44.047Z,18.07
2019-05-21T00:09:48.435Z,18.57
2019-05-21T00:14:52.813Z,19.20
2019-05-21T00:19:57.137Z,17.65
2019-05-21T00:25:01.470Z,16.55
2019-05-21T00:31:00.875Z,18.12
2019-05-21T00:37:01.745Z,18.35
2019-05-21T00:42:05.269Z,17.35
2019-05-21T00:47:11.681Z,16.65
2019-05-21T00:52:16.081Z,17.87
2019-05-21T00:57:21.085Z,18.77
2019-05-21T01:02:25.398Z,18.25
2019-05-21T01:07:29.785Z,19.73
2019-05-21T01:12:34.177Z,20.57
2019-05-21T01:17:38.561Z,21.27
2019-05-21T01:22:42.887Z,19.62
2019-05-21T01:27:47.281Z,19.95
2019-05-21T01:32:51.676Z,17.12
2019-05-21T01:37:56.063Z,18.65
2019-05-21T01:43:03.184Z,18.92
2019-05-21T01:48:06.565Z,18.85
2019-05-21T01:53:10.953Z,18.37
2019-05-21T01:58:15.983Z,18.32
2019-05-21T02:03:23.831Z,17.95
2019-05-21T02:08:27.218Z,18.52
2019-05-21T02:13:31.537Z,18.17
2019-05-21T02:18:35.829Z,16.65
2019-05-21T02:23:40.136Z,15.90
2019-05-21T02:28:44.443Z,16.15
2019-05-21T02:33:48.894Z,17.40
2019-05-21T02:38:53.293Z,18.73
2019-05-21T02:43:57.723Z,18.00
2019-05-21T02:49:02.036Z,15.08
2019-05-21T02:54:06.424Z,14.40
2019-05-21T02:59:12.075Z,14.50
2019-05-21T03:04:16.475Z,14.18
2019-05-21T03:09:20.871Z,13.90
2019-05-21T03:14:25.251Z,12.03
2019-05-21T03:19:29.634Z,12.85
2019-05-21T03:24:35.857Z,12.18
2019-05-21T03:29:40.241Z,12.63
2019-05-21T03:34:44.690Z,12.60
2019-05-21T03:39:48.976Z,14.45
2019-05-21T03:44:59.944Z,15.78
2019-05-21T03:49:59.320Z,16.93
2019-05-21T03:55:03.998Z,18.12
2019-05-21T04:00:12.199Z,18.15
2019-05-21T04:05:21.228Z,18.90
2019-05-21T04:10:25.711Z,18.30
2019-05-21T04:15:30.599Z,16.80
2019-05-21T04:20:34.991Z,17.10
2019-05-21T04:25:39.321Z,16.40
2019-05-21T04:30:43.615Z,17.30
2019-05-21T04:35:51.140Z,17.25
2019-05-21T04:40:55.719Z,20.23
2019-05-21T04:46:00.036Z,17.62
2019-05-21T04:51:04.686Z,15.28
2019-05-21T04:56:09.024Z,14.63
2019-05-21T05:01:15.056Z,14.85
2019-05-21T05:06:19.366Z,15.68
2019-05-21T05:11:23.746Z,16.52
2019-05-21T05:16:28.144Z,16.25
2019-05-21T05:21:32.474Z,17.48
2019-05-21T05:26:36.773Z,17.87
2019-05-21T05:31:41.095Z,18.48
2019-05-21T05:36:45.491Z,18.75
2019-05-21T05:41:49.878Z,16.90
2019-05-21T05:46:54.258Z,16.40
2019-05-21T05:51:58.566Z,15.03
2019-05-21T05:57:02.957Z,14.35
2019-05-21T06:02:08.884Z,15.35
2019-05-21T06:07:13.205Z,15.78
2019-05-21T06:12:17.584Z,17.55
2019-05-21T06:17:21.979Z,18.07
2019-05-21T06:22:26.367Z,17.90
2019-05-21T06:27:30.691Z,18.45
2019-05-21T06:32:35.044Z,18.00
2019-05-21T06:37:39.385Z,17.75
2019-05-21T06:42:43.779Z,18.37
2019-05-21T06:47:48.173Z,18.32
2019-05-21T06:52:52.491Z,18.57
2019-05-21T06:57:56.875Z,16.52
2019-05-21T07:03:03.332Z,14.58
2019-05-21T07:08:07.714Z,14.13
2019-05-21T07:13:12.108Z,16.73
2019-05-21T07:18:16.724Z,19.12
2019-05-21T07:23:21.101Z,17.75
2019-05-21T07:28:25.496Z,15.80
2019-05-21T07:33:29.794Z,17.10
2019-05-21T07:38:50.216Z,16.57
2019-05-21T07:43:40.257Z,15.98
2019-05-21T07:48:45.186Z,17.05
2019-05-21T07:53:49.494Z,19.27
2019-05-21T07:58:53.874Z,19.75
2019-05-21T08:03:59.404Z,16.97
2019-05-21T08:09:13.295Z,16.80
2019-05-21T08:14:11.932Z,14.98
2019-05-21T08:19:16.243Z,17.05
2019-05-21T08:24:20.737Z,15.53
2019-05-21T08:29:25.378Z,15.28
2019-05-21T08:34:29.928Z,12.40
2019-05-21T08:39:34.387Z,12.95
2019-05-21T08:44:38.775Z,14.05
2019-05-21T08:49:44.306Z,16.80
2019-05-21T08:54:56.061Z,17.52
2019-05-21T08:59:58.628Z,17.05
2019-05-21T09:05:06.502Z,17.17
2019-05-21T09:10:11.959Z,16.32
2019-05-21T09:15:17.901Z,17.02
2019-05-21T09:20:22.583Z,15.98
2019-05-21T09:25:26.962Z,16.37
2019-05-21T09:30:31.371Z,16.52
2019-05-21T09:35:35.769Z,15.00
2019-05-21T09:40:40.402Z,14.68
2019-05-21T09:45:45.299Z,14.87
2019-05-21T09:50:49.606Z,14.73
2019-05-21T09:55:54.225Z,14.18
2019-05-21T10:01:12.474Z,13.28
2019-05-21T10:06:17.209Z,14.58
2019-05-21T10:11:21.599Z,13.28
2019-05-21T10:16:25.977Z,12.53
2019-05-21T10:21:30.640Z,12.88
2019-05-21T10:26:35.660Z,12.03
2019-05-21T10:31:40.059Z,12.50
2019-05-21T10:36:44.371Z,12.23
2019-05-21T10:41:48.905Z,11.33
2019-05-21T10:46:53.382Z,11.83
2019-05-21T10:51:57.881Z,12.55
2019-05-21T10:57:02.272Z,10.60
2019-05-21T11:02:17.596Z,11.08
2019-05-21T11:07:23.693Z,11.57
2019-05-21T11:12:28.312Z,11.00
2019-05-21T11:17:46.946Z,9.53
2019-05-21T11:22:39.021Z,10.40
2019-05-21T11:27:43.482Z,11.00
2019-05-21T11:32:48.164Z,9.83
2019-05-21T11:37:52.541Z,10.08
2019-05-21T11:42:56.922Z,10.53
2019-05-21T11:48:01.316Z,10.45
2019-05-21T11:53:05.732Z,9.55
2019-05-21T11:58:10.087Z,10.60
2019-05-21T12:03:14.735Z,11.03
2019-05-21T12:08:19.041Z,11.10
2019-05-21T12:13:23.615Z,9.68
2019-05-21T12:18:27.987Z,9.98
2019-05-21T12:23:32.401Z,9.93
2019-05-21T12:28:36.773Z,9.53
2019-05-21T12:33:41.234Z,9.13
2019-05-21T12:38:45.617Z,9.28
2019-05-21T12:43:50.007Z,8.30
2019-05-21T12:48:54.312Z,7.37
2019-05-21T12:53:58.623Z,8.30
2019-05-21T12:59:03.163Z,7.53
2019-05-21T13:04:07.754Z,7.28
2019-05-21T13:09:12.198Z,6.87
2019-05-21T13:14:18.890Z,7.33
2019-05-21T13:19:22.871Z,7.43
2019-05-21T13:24:27.286Z,7.47
2019-05-21T13:29:31.607Z,8.45
2019-05-21T13:34:36.210Z,8.48
2019-05-21T13:39:49.506Z,7.40
2019-05-21T13:44:46.578Z,7.17
2019-05-21T13:49:50.969Z,7.53
2019-05-21T13:54:55.538Z,7.87
2019-05-21T14:00:00.225Z,7.30
2019-05-21T14:05:05.644Z,7.80
2019-05-21T14:10:15.864Z,6.80
2019-05-21T14:15:16.562Z,6.33
2019-05-21T14:20:21.078Z,7.25
2019-05-21T14:25:25.455Z,7.12
2019-05-21T14:30:29.781Z,6.53
2019-05-21T14:35:34.170Z,5.62
2019-05-21T14:40:38.548Z,4.70
2019-05-21T14:45:42.849Z,5.75
2019-05-21T14:50:47.253Z,6.95
2019-05-21T14:55:51.654Z,5.97
2019-05-21T15:00:56.168Z,6.08
2019-05-21T15:06:00.553Z,6.35
2019-05-21T15:11:04.877Z,6.00
2019-05-21T15:16:09.552Z,6.67
2019-05-21T15:21:21.520Z,6.67
2019-05-21T15:26:25.896Z,6.37
2019-05-21T15:31:30.520Z,6.50
2019-05-21T15:36:34.906Z,6.78
2019-05-21T15:41:39.286Z,6.47
2019-05-21T15:46:49.510Z,7.15
2019-05-21T15:51:49.714Z,7.75
2019-05-21T15:56:54.110Z,8.95
2019-05-21T16:01:58.510Z,8.70
2019-05-21T16:07:02.953Z,8.28
2019-05-21T16:12:07.346Z,8.60
2019-05-21T16:17:11.654Z,9.65
2019-05-21T16:22:16.240Z,10.10
2019-05-21T16:27:20.546Z,9.35
2019-05-21T16:32:25.126Z,9.85
2019-05-21T16:37:29.511Z,10.93
2019-05-21T16:42:33.897Z,10.82
2019-05-21T16:47:45.959Z,11.60
2019-05-21T16:52:44.688Z,11.25
2019-05-21T16:57:49.077Z,10.82
2019-05-21T17:02:53.460Z,10.72
2019-05-21T17:07:57.844Z,11.57
2019-05-21T17:13:02.310Z,10.38
2019-05-21T17:18:06.683Z,10.00
2019-05-21T17:23:11.070Z,8.53
2019-05-21T17:28:15.482Z,9.58
2019-05-21T17:33:19.855Z,8.33
2019-05-21T17:38:24.753Z,9.40
2019-05-21T17:43:29.201Z,9.83
2019-05-21T17:48:33.516Z,10.10
2019-05-21T17:53:37.897Z,9.78
2019-05-21T17:58:42.297Z,9.30
2019-05-21T18:03:46.607Z,8.10
2019-05-21T18:08:51.583Z,8.38
2019-05-21T18:13:55.978Z,8.25
2019-05-21T18:19:00.977Z,8.43
2019-05-21T18:24:05.749Z,8.95
2019-05-21T18:29:10.210Z,8.55
2019-05-21T18:34:14.529Z,9.13
2019-05-21T18:39:19.743Z,8.98
2019-05-21T18:44:24.239Z,8.90
2019-05-21T18:49:28.576Z,8.90
2019-05-21T18:54:34.340Z,9.35
2019-05-21T18:59:39.400Z,8.70
2019-05-21T19:04:43.795Z,8.85
2019-05-21T19:09:48.311Z,9.60
2019-05-21T19:14:52.703Z,8.95
2019-05-21T19:19:57.089Z,8.00
2019-05-21T19:25:01.506Z,6.75
2019-05-21T19:30:10.572Z,6.50
2019-05-21T19:35:14.941Z,7.00
2019-05-21T19:40:19.326Z,7.33
2019-05-21T19:45:23.696Z,8.30
2019-05-21T19:50:28.191Z,9.30
2019-05-21T19:55:34.042Z,9.50
2019-05-21T20:00:40.105Z,9.98
2019-05-21T20:05:46.353Z,9.65
2019-05-21T20:10:53.654Z,9.40
2019-05-21T20:15:58.951Z,8.50
2019-05-21T20:21:06.599Z,8.75
2019-05-21T20:26:15.628Z,8.43
2019-05-21T20:31:20.317Z,7.58
2019-05-21T20:36:25.022Z,7.90
2019-05-21T20:41:30.824Z,8.30
2019-05-21T20:46:35.717Z,7.87
2019-05-21T20:51:43.324Z,8.45
2019-05-21T20:56:47.594Z,8.23
2019-05-21T21:01:52.265Z,8.43
2019-05-21T21:06:57.018Z,8.75
2019-05-21T21:12:01.416Z,9.05
2019-05-21T21:17:10.436Z,9.93
2019-05-21T21:22:14.917Z,8.50
2019-05-21T21:27:19.737Z,8.58
2019-05-21T21:32:24.056Z,8.85
2019-05-21T21:37:28.457Z,7.60
2019-05-21T21:42:33.128Z,7.90
2019-05-21T21:47:37.915Z,8.00
2019-05-21T21:52:42.373Z,7.70
2019-05-21T21:57:46.763Z,8.55
2019-05-21T22:02:51.144Z,7.55
2019-05-21T22:07:55.621Z,8.03
2019-05-21T22:13:00.248Z,8.48
2019-05-21T22:18:05.296Z,9.53
2019-05-21T22:23:09.881Z,9.08
2019-05-21T22:28:14.416Z,9.10
2019-05-21T22:33:19.512Z,10.25
2019-05-21T22:38:32.298Z,10.15
2019-05-21T22:43:35.991Z,10.85
2019-05-21T22:48:40.299Z,11.00
2019-05-21T22:53:44.830Z,10.63
2019-05-21T22:58:49.149Z,11.80
2019-05-21T23:03:55.585Z,11.65
2019-05-21T23:08:59.890Z,11.30
2019-05-21T23:14:04.933Z,11.53
2019-05-21T23:19:11.341Z,11.75
2019-05-21T23:24:18.356Z,11.40
2019-05-21T23:29:24.124Z,12.07
2019-05-21T23:34:28.955Z,11.20
2019-05-21T23:39:34.843Z,11.73
2019-05-21T23:44:39.394Z,11.25
2019-05-21T23:49:44.031Z,11.45
2019-05-21T23:54:48.348Z,12.40
2019-05-21T23:59:53.171Z,11.73
